Foster, Nebraska
Current Conditions -  °F | °C
As of 8:56 AM on Friday 19 Dec 2014 (Local Time) from KOFK Reporting Station
Overcast Overcast  
Wind Chill: 20°   Ceiling: 700
Heat Index: 29°   Visibility: 8mi
Dew Point: 26°   Wind: 9mph
Humidity: 89%   Direction: 190°S
Pressure: 30.15"   Gusts: NA
Location:  42.27°N, 97.66°W
Report Text: KOFK 191456Z AUTO 19008KT 8SM OVC007 M02/M03 A3015 RMK AO2 SLP229 T10171033 56000
Loading
Personal Weather Stations






























Interactive Weather Map New forecast layout! Learn more

10-Day Weather Forecast

Advertisements
Track Severe Weather on mobile